Terminal Aerodrome Forecast
Issued by NWS Mt. Holly, NJ

Home | Current Version | Previous Version | Text Only | Print | Product List | Glossary On
Versions: 1 2 3 4 5 6 7 8 9 10 11 12 13 14 15 16 17 18 19 20 21 22 23 24 25 26 27 28 29 30 31 32 33 34 35 36 37 38
000
FTAK31 PANC 311503 AAB
TAFABE
TAF AMD
PABE 311503Z 3115/0112 30006KT 3SM BR SCT001 BKN070
      TEMPO 3115/3118 1/4SM FG BKN001
     FM311900 30008KT P6SM FEW008 SCT045 BKN060
     FM010000 29011KT P6SM BKN070
     FM010500 30010KT P6SM SCT250=

USA.gov is the U.S. government's official web portal to all federal, state and local government web resources and services.